sensor_id;sensor_type;location;lat;lon;timestamp;P1;durP1;ratioP1;P2;durP2;ratioP2
43457;SDS011;29046;54.184;18.680;2022-08-19T00:00:04;14.30;;;11.00;;
43457;SDS011;29046;54.184;18.680;2022-08-19T00:03:08;17.05;;;11.50;;
43457;SDS011;29046;54.184;18.680;2022-08-19T00:05:42;19.58;;;12.68;;
43457;SDS011;29046;54.184;18.680;2022-08-19T00:08:29;25.13;;;13.10;;
43457;SDS011;29046;54.184;18.680;2022-08-19T00:11:08;20.83;;;12.30;;
43457;SDS011;29046;54.184;18.680;2022-08-19T00:14:05;18.67;;;11.70;;
43457;SDS011;29046;54.184;18.680;2022-08-19T00:16:42;21.02;;;10.75;;
43457;SDS011;29046;54.184;18.680;2022-08-19T00:19:30;18.52;;;10.43;;
43457;SDS011;29046;54.184;18.680;2022-08-19T00:22:04;22.75;;;10.68;;
43457;SDS011;29046;54.184;18.680;2022-08-19T00:24:58;16.27;;;10.25;;
43457;SDS011;29046;54.184;18.680;2022-08-19T00:27:54;15.40;;;10.52;;
43457;SDS011;29046;54.184;18.680;2022-08-19T00:30:28;22.40;;;11.13;;
43457;SDS011;29046;54.184;18.680;2022-08-19T00:33:16;17.17;;;10.30;;
43457;SDS011;29046;54.184;18.680;2022-08-19T00:35:50;14.77;;;9.88;;
43457;SDS011;29046;54.184;18.680;2022-08-19T00:38:44;13.23;;;9.95;;
43457;SDS011;29046;54.184;18.680;2022-08-19T00:41:20;16.98;;;10.75;;
43457;SDS011;29046;54.184;18.680;2022-08-19T00:46:53;12.95;;;8.45;;
43457;SDS011;29046;54.184;18.680;2022-08-19T00:49:54;11.98;;;9.45;;
43457;SDS011;29046;54.184;18.680;2022-08-19T00:52:31;19.67;;;10.20;;
43457;SDS011;29046;54.184;18.680;2022-08-19T00:55:21;18.50;;;10.55;;
43457;SDS011;29046;54.184;18.680;2022-08-19T00:58:00;14.68;;;10.50;;
43457;SDS011;29046;54.184;18.680;2022-08-19T01:00:49;10.13;;;8.85;;
43457;SDS011;29046;54.184;18.680;2022-08-19T01:03:24;16.60;;;10.45;;
43457;SDS011;29046;54.184;18.680;2022-08-19T01:06:31;14.65;;;10.60;;
43457;SDS011;29046;54.184;18.680;2022-08-19T01:09:06;13.68;;;10.30;;
43457;SDS011;29046;54.184;18.680;2022-08-19T01:11:54;12.85;;;10.32;;
43457;SDS011;29046;54.184;18.680;2022-08-19T01:14:29;12.88;;;10.40;;
43457;SDS011;29046;54.184;18.680;2022-08-19T01:17:17;21.25;;;11.65;;
43457;SDS011;29046;54.184;18.680;2022-08-19T01:19:52;20.48;;;11.57;;
43457;SDS011;29046;54.184;18.680;2022-08-19T01:22:43;14.07;;;10.32;;
43457;SDS011;29046;54.184;18.680;2022-08-19T01:25:20;14.30;;;10.43;;
43457;SDS011;29046;54.184;18.680;2022-08-19T01:28:14;19.02;;;11.48;;
43457;SDS011;29046;54.184;18.680;2022-08-19T01:31:07;12.52;;;9.98;;
43457;SDS011;29046;54.184;18.680;2022-08-19T01:34:06;13.48;;;9.82;;
43457;SDS011;29046;54.184;18.680;2022-08-19T01:37:01;13.57;;;11.38;;
43457;SDS011;29046;54.184;18.680;2022-08-19T01:39:52;13.65;;;10.38;;
43457;SDS011;29046;54.184;18.680;2022-08-19T01:42:48;14.32;;;10.20;;
43457;SDS011;29046;54.184;18.680;2022-08-19T01:45:24;12.52;;;9.82;;
43457;SDS011;29046;54.184;18.680;2022-08-19T01:48:12;14.50;;;9.20;;
43457;SDS011;29046;54.184;18.680;2022-08-19T01:50:47;12.82;;;9.65;;
43457;SDS011;29046;54.184;18.680;2022-08-19T01:53:33;13.82;;;10.40;;
43457;SDS011;29046;54.184;18.680;2022-08-19T01:56:08;12.98;;;10.48;;
43457;SDS011;29046;54.184;18.680;2022-08-19T01:58:58;14.95;;;11.55;;
43457;SDS011;29046;54.184;18.680;2022-08-19T02:01:40;16.35;;;11.07;;
43457;SDS011;29046;54.184;18.680;2022-08-19T02:04:20;14.55;;;11.15;;
43457;SDS011;29046;54.184;18.680;2022-08-19T02:07:03;14.90;;;10.65;;
43457;SDS011;29046;54.184;18.680;2022-08-19T02:09:50;13.10;;;11.70;;
43457;SDS011;29046;54.184;18.680;2022-08-19T02:12:35;17.85;;;11.95;;
43457;SDS011;29046;54.184;18.680;2022-08-19T02:15:24;15.90;;;10.75;;
43457;SDS011;29046;54.184;18.680;2022-08-19T02:18:05;13.40;;;10.43;;
43457;SDS011;29046;54.184;18.680;2022-08-19T02:20:46;13.35;;;10.80;;
43457;SDS011;29046;54.184;18.680;2022-08-19T02:23:27;13.20;;;10.10;;
43457;SDS011;29046;54.184;18.680;2022-08-19T02:26:09;15.52;;;11.32;;
43457;SDS011;29046;54.184;18.680;2022-08-19T02:28:50;11.63;;;10.43;;
43457;SDS011;29046;54.184;18.680;2022-08-19T02:31:30;13.13;;;9.95;;
43457;SDS011;29046;54.184;18.680;2022-08-19T02:34:11;13.73;;;9.77;;
43457;SDS011;29046;54.184;18.680;2022-08-19T02:36:57;12.57;;;9.70;;
43457;SDS011;29046;54.184;18.680;2022-08-19T02:39:31;16.38;;;10.00;;
43457;SDS011;29046;54.184;18.680;2022-08-19T02:42:17;12.23;;;9.15;;
43457;SDS011;29046;54.184;18.680;2022-08-19T02:44:51;16.35;;;9.93;;
43457;SDS011;29046;54.184;18.680;2022-08-19T02:47:40;16.45;;;10.75;;
43457;SDS011;29046;54.184;18.680;2022-08-19T02:50:13;22.83;;;9.98;;
43457;SDS011;29046;54.184;18.680;2022-08-19T02:53:07;13.27;;;10.20;;
43457;SDS011;29046;54.184;18.680;2022-08-19T02:55:45;12.60;;;9.38;;
43457;SDS011;29046;54.184;18.680;2022-08-19T02:58:39;17.27;;;11.15;;
43457;SDS011;29046;54.184;18.680;2022-08-19T03:01:35;18.23;;;11.02;;
43457;SDS011;29046;54.184;18.680;2022-08-19T03:04:10;17.15;;;11.23;;
43457;SDS011;29046;54.184;18.680;2022-08-19T03:06:58;17.35;;;11.75;;
43457;SDS011;29046;54.184;18.680;2022-08-19T03:09:37;23.05;;;12.35;;
43457;SDS011;29046;54.184;18.680;2022-08-19T03:12:23;16.30;;;12.95;;
43457;SDS011;29046;54.184;18.680;2022-08-19T03:14:57;22.67;;;12.43;;
43457;SDS011;29046;54.184;18.680;2022-08-19T03:17:44;15.50;;;11.75;;
43457;SDS011;29046;54.184;18.680;2022-08-19T03:20:18;18.67;;;12.10;;
43457;SDS011;29046;54.184;18.680;2022-08-19T03:23:05;26.58;;;13.15;;
43457;SDS011;29046;54.184;18.680;2022-08-19T03:25:40;20.63;;;13.73;;
43457;SDS011;29046;54.184;18.680;2022-08-19T03:28:47;17.77;;;12.82;;
43457;SDS011;29046;54.184;18.680;2022-08-19T03:31:25;15.35;;;11.95;;
43457;SDS011;29046;54.184;18.680;2022-08-19T03:34:31;19.10;;;14.00;;
43457;SDS011;29046;54.184;18.680;2022-08-19T03:37:14;19.85;;;12.73;;
43457;SDS011;29046;54.184;18.680;2022-08-19T03:39:54;23.70;;;13.63;;
43457;SDS011;29046;54.184;18.680;2022-08-19T03:42:36;23.42;;;14.20;;
43457;SDS011;29046;54.184;18.680;2022-08-19T03:45:22;15.23;;;13.25;;
43457;SDS011;29046;54.184;18.680;2022-08-19T03:48:03;18.55;;;12.05;;
43457;SDS011;29046;54.184;18.680;2022-08-19T03:50:43;24.23;;;14.65;;
43457;SDS011;29046;54.184;18.680;2022-08-19T03:53:26;14.82;;;13.20;;
43457;SDS011;29046;54.184;18.680;2022-08-19T03:56:08;20.50;;;13.48;;
43457;SDS011;29046;54.184;18.680;2022-08-19T03:58:49;18.92;;;12.25;;
43457;SDS011;29046;54.184;18.680;2022-08-19T04:01:29;17.13;;;13.13;;
43457;SDS011;29046;54.184;18.680;2022-08-19T04:04:10;20.80;;;13.63;;
43457;SDS011;29046;54.184;18.680;2022-08-19T04:06:51;14.25;;;11.40;;
43457;SDS011;29046;54.184;18.680;2022-08-19T04:09:33;15.88;;;12.82;;
43457;SDS011;29046;54.184;18.680;2022-08-19T04:12:20;15.45;;;10.75;;
43457;SDS011;29046;54.184;18.680;2022-08-19T04:15:01;15.27;;;11.15;;
43457;SDS011;29046;54.184;18.680;2022-08-19T04:17:41;16.30;;;11.63;;
43457;SDS011;29046;54.184;18.680;2022-08-19T04:20:22;18.98;;;11.15;;
43457;SDS011;29046;54.184;18.680;2022-08-19T04:23:02;17.60;;;12.43;;
43457;SDS011;29046;54.184;18.680;2022-08-19T04:25:43;16.73;;;11.13;;
43457;SDS011;29046;54.184;18.680;2022-08-19T04:28:31;18.27;;;10.93;;
43457;SDS011;29046;54.184;18.680;2022-08-19T04:31:15;17.33;;;11.27;;
43457;SDS011;29046;54.184;18.680;2022-08-19T04:34:06;17.15;;;12.35;;
43457;SDS011;29046;54.184;18.680;2022-08-19T04:36:48;19.33;;;11.38;;
43457;SDS011;29046;54.184;18.680;2022-08-19T04:39:37;13.85;;;11.15;;
43457;SDS011;29046;54.184;18.680;2022-08-19T04:42:34;16.73;;;11.57;;
43457;SDS011;29046;54.184;18.680;2022-08-19T04:45:22;14.70;;;11.40;;
43457;SDS011;29046;54.184;18.680;2022-08-19T04:47:56;18.23;;;12.27;;
43457;SDS011;29046;54.184;18.680;2022-08-19T04:50:59;17.88;;;11.95;;
43457;SDS011;29046;54.184;18.680;2022-08-19T04:53:35;23.48;;;12.70;;
43457;SDS011;29046;54.184;18.680;2022-08-19T04:56:23;16.67;;;11.13;;
43457;SDS011;29046;54.184;18.680;2022-08-19T04:58:59;17.98;;;12.68;;
43457;SDS011;29046;54.184;18.680;2022-08-19T05:01:47;20.67;;;12.43;;
43457;SDS011;29046;54.184;18.680;2022-08-19T05:04:23;15.90;;;11.73;;
43457;SDS011;29046;54.184;18.680;2022-08-19T05:07:10;24.58;;;12.07;;
43457;SDS011;29046;54.184;18.680;2022-08-19T05:09:51;20.15;;;13.57;;
43457;SDS011;29046;54.184;18.680;2022-08-19T05:12:31;16.55;;;12.55;;
43457;SDS011;29046;54.184;18.680;2022-08-19T05:15:13;25.88;;;13.55;;
43457;SDS011;29046;54.184;18.680;2022-08-19T05:17:53;18.63;;;12.65;;
43457;SDS011;29046;54.184;18.680;2022-08-19T05:20:53;21.73;;;12.35;;
43457;SDS011;29046;54.184;18.680;2022-08-19T05:23:52;35.55;;;13.00;;
43457;SDS011;29046;54.184;18.680;2022-08-19T05:26:33;20.77;;;11.50;;
43457;SDS011;29046;54.184;18.680;2022-08-19T05:29:21;21.58;;;10.68;;
43457;SDS011;29046;54.184;18.680;2022-08-19T05:32:08;18.15;;;11.18;;
43457;SDS011;29046;54.184;18.680;2022-08-19T05:34:48;17.75;;;10.68;;
43457;SDS011;29046;54.184;18.680;2022-08-19T05:37:30;14.45;;;10.30;;
43457;SDS011;29046;54.184;18.680;2022-08-19T05:40:13;21.40;;;10.00;;
43457;SDS011;29046;54.184;18.680;2022-08-19T05:42:54;19.77;;;9.80;;
43457;SDS011;29046;54.184;18.680;2022-08-19T05:45:38;17.20;;;9.68;;
43457;SDS011;29046;54.184;18.680;2022-08-19T05:48:20;13.13;;;9.30;;
43457;SDS011;29046;54.184;18.680;2022-08-19T05:51:07;16.80;;;9.70;;
43457;SDS011;29046;54.184;18.680;2022-08-19T05:53:49;10.65;;;8.63;;
43457;SDS011;29046;54.184;18.680;2022-08-19T05:56:31;14.63;;;9.05;;
43457;SDS011;29046;54.184;18.680;2022-08-19T05:59:13;17.40;;;9.13;;
43457;SDS011;29046;54.184;18.680;2022-08-19T06:01:56;11.80;;;8.43;;
43457;SDS011;29046;54.184;18.680;2022-08-19T06:04:37;9.20;;;8.05;;
43457;SDS011;29046;54.184;18.680;2022-08-19T06:07:16;10.68;;;8.55;;
43457;SDS011;29046;54.184;18.680;2022-08-19T06:09:57;17.92;;;8.85;;
43457;SDS011;29046;54.184;18.680;2022-08-19T06:12:36;13.38;;;8.63;;
43457;SDS011;29046;54.184;18.680;2022-08-19T06:15:17;18.42;;;8.43;;
43457;SDS011;29046;54.184;18.680;2022-08-19T06:17:58;14.88;;;8.73;;
43457;SDS011;29046;54.184;18.680;2022-08-19T06:20:41;12.25;;;8.20;;
43457;SDS011;29046;54.184;18.680;2022-08-19T06:23:29;10.45;;;8.60;;
43457;SDS011;29046;54.184;18.680;2022-08-19T06:26:04;13.60;;;8.43;;
43457;SDS011;29046;54.184;18.680;2022-08-19T06:28:51;13.27;;;8.27;;
43457;SDS011;29046;54.184;18.680;2022-08-19T06:31:26;12.48;;;7.72;;
43457;SDS011;29046;54.184;18.680;2022-08-19T06:34:13;17.50;;;8.40;;
43457;SDS011;29046;54.184;18.680;2022-08-19T06:36:49;10.57;;;7.72;;
43457;SDS011;29046;54.184;18.680;2022-08-19T06:39:44;16.30;;;7.93;;
43457;SDS011;29046;54.184;18.680;2022-08-19T06:42:38;14.32;;;7.75;;
43457;SDS011;29046;54.184;18.680;2022-08-19T06:45:20;10.10;;;7.65;;
43457;SDS011;29046;54.184;18.680;2022-08-19T06:48:17;10.25;;;7.93;;
43457;SDS011;29046;54.184;18.680;2022-08-19T06:51:17;15.35;;;8.65;;
43457;SDS011;29046;54.184;18.680;2022-08-19T06:53:57;13.93;;;8.45;;
43457;SDS011;29046;54.184;18.680;2022-08-19T06:56:59;11.05;;;7.20;;
43457;SDS011;29046;54.184;18.680;2022-08-19T06:59:55;11.85;;;8.00;;
43457;SDS011;29046;54.184;18.680;2022-08-19T07:02:29;15.98;;;7.70;;
43457;SDS011;29046;54.184;18.680;2022-08-19T07:05:19;9.98;;;7.68;;
43457;SDS011;29046;54.184;18.680;2022-08-19T07:07:54;12.77;;;8.05;;
43457;SDS011;29046;54.184;18.680;2022-08-19T07:10:47;11.13;;;8.20;;
43457;SDS011;29046;54.184;18.680;2022-08-19T07:13:47;9.60;;;7.38;;
43457;SDS011;29046;54.184;18.680;2022-08-19T07:16:22;11.33;;;7.80;;
43457;SDS011;29046;54.184;18.680;2022-08-19T07:19:22;10.68;;;6.97;;
43457;SDS011;29046;54.184;18.680;2022-08-19T07:22:00;11.13;;;7.22;;
43457;SDS011;29046;54.184;18.680;2022-08-19T07:24:55;11.65;;;7.28;;
43457;SDS011;29046;54.184;18.680;2022-08-19T07:27:29;12.98;;;6.97;;
43457;SDS011;29046;54.184;18.680;2022-08-19T07:30:18;9.80;;;7.32;;
43457;SDS011;29046;54.184;18.680;2022-08-19T07:32:52;12.02;;;7.55;;
43457;SDS011;29046;54.184;18.680;2022-08-19T07:35:46;12.25;;;7.20;;
43457;SDS011;29046;54.184;18.680;2022-08-19T07:38:27;13.35;;;8.63;;
43457;SDS011;29046;54.184;18.680;2022-08-19T07:41:07;12.40;;;7.35;;
43457;SDS011;29046;54.184;18.680;2022-08-19T07:43:50;10.93;;;8.20;;
43457;SDS011;29046;54.184;18.680;2022-08-19T07:46:39;15.25;;;7.05;;
43457;SDS011;29046;54.184;18.680;2022-08-19T07:49:14;13.07;;;6.68;;
43457;SDS011;29046;54.184;18.680;2022-08-19T07:52:04;10.75;;;6.60;;
43457;SDS011;29046;54.184;18.680;2022-08-19T07:54:46;25.02;;;7.25;;
43457;SDS011;29046;54.184;18.680;2022-08-19T07:57:26;11.07;;;6.50;;
43457;SDS011;29046;54.184;18.680;2022-08-19T08:00:07;16.65;;;6.95;;
43457;SDS011;29046;54.184;18.680;2022-08-19T08:02:51;17.70;;;7.05;;
43457;SDS011;29046;54.184;18.680;2022-08-19T08:05:32;11.05;;;6.45;;
43457;SDS011;29046;54.184;18.680;2022-08-19T08:08:38;16.77;;;6.30;;
43457;SDS011;29046;54.184;18.680;2022-08-19T08:11:19;17.90;;;6.38;;
43457;SDS011;29046;54.184;18.680;2022-08-19T08:14:18;11.85;;;5.90;;
43457;SDS011;29046;54.184;18.680;2022-08-19T08:17:09;21.77;;;6.30;;
43457;SDS011;29046;54.184;18.680;2022-08-19T08:20:18;8.48;;;6.32;;
43457;SDS011;29046;54.184;18.680;2022-08-19T08:22:52;15.68;;;6.20;;
43457;SDS011;29046;54.184;18.680;2022-08-19T08:26:04;11.07;;;5.93;;
43457;SDS011;29046;54.184;18.680;2022-08-19T08:28:41;12.45;;;6.15;;
43457;SDS011;29046;54.184;18.680;2022-08-19T08:31:28;9.93;;;5.38;;
43457;SDS011;29046;54.184;18.680;2022-08-19T08:34:02;11.20;;;5.65;;
43457;SDS011;29046;54.184;18.680;2022-08-19T08:36:56;14.50;;;7.07;;
43457;SDS011;29046;54.184;18.680;2022-08-19T08:39:50;10.68;;;6.10;;
43457;SDS011;29046;54.184;18.680;2022-08-19T08:42:29;16.10;;;5.65;;
43457;SDS011;29046;54.184;18.680;2022-08-19T08:45:25;8.88;;;5.75;;
43457;SDS011;29046;54.184;18.680;2022-08-19T08:48:36;13.90;;;5.80;;
43457;SDS011;29046;54.184;18.680;2022-08-19T08:51:36;8.93;;;5.60;;
43457;SDS011;29046;54.184;18.680;2022-08-19T08:54:43;8.55;;;5.43;;
43457;SDS011;29046;54.184;18.680;2022-08-19T08:57:38;16.38;;;6.05;;
43457;SDS011;29046;54.184;18.680;2022-08-19T09:00:33;9.32;;;5.47;;
43457;SDS011;29046;54.184;18.680;2022-08-19T09:03:19;12.85;;;5.72;;
43457;SDS011;29046;54.184;18.680;2022-08-19T09:06:06;9.77;;;5.65;;
43457;SDS011;29046;54.184;18.680;2022-08-19T09:15:07;10.15;;;5.80;;
43457;SDS011;29046;54.184;18.680;2022-08-19T09:17:49;12.88;;;5.93;;
43457;SDS011;29046;54.184;18.680;2022-08-19T09:20:30;9.35;;;5.38;;
43457;SDS011;29046;54.184;18.680;2022-08-19T09:23:05;10.15;;;5.25;;
43457;SDS011;29046;54.184;18.680;2022-08-19T09:25:59;8.38;;;5.03;;
43457;SDS011;29046;54.184;18.680;2022-08-19T09:28:33;14.30;;;5.68;;
43457;SDS011;29046;54.184;18.680;2022-08-19T09:31:24;7.57;;;4.97;;
43457;SDS011;29046;54.184;18.680;2022-08-19T09:34:00;11.68;;;5.03;;
43457;SDS011;29046;54.184;18.680;2022-08-19T09:36:53;11.55;;;5.85;;
43457;SDS011;29046;54.184;18.680;2022-08-19T09:39:38;8.35;;;5.80;;
43457;SDS011;29046;54.184;18.680;2022-08-19T09:42:26;8.00;;;5.28;;
43457;SDS011;29046;54.184;18.680;2022-08-19T09:45:15;9.15;;;5.30;;
43457;SDS011;29046;54.184;18.680;2022-08-19T09:48:09;8.40;;;5.72;;
43457;SDS011;29046;54.184;18.680;2022-08-19T09:51:05;7.40;;;4.90;;
43457;SDS011;29046;54.184;18.680;2022-08-19T09:53:43;10.00;;;5.60;;
43457;SDS011;29046;54.184;18.680;2022-08-19T09:56:32;7.32;;;5.22;;
43457;SDS011;29046;54.184;18.680;2022-08-19T09:59:08;8.85;;;5.47;;
43457;SDS011;29046;54.184;18.680;2022-08-19T10:02:02;9.68;;;5.50;;
43457;SDS011;29046;54.184;18.680;2022-08-19T10:05:01;16.00;;;5.82;;
43457;SDS011;29046;54.184;18.680;2022-08-19T10:07:56;13.03;;;5.70;;
43457;SDS011;29046;54.184;18.680;2022-08-19T10:10:53;7.88;;;5.25;;
43457;SDS011;29046;54.184;18.680;2022-08-19T10:14:07;12.50;;;5.90;;
43457;SDS011;29046;54.184;18.680;2022-08-19T10:17:02;5.70;;;4.93;;
43457;SDS011;29046;54.184;18.680;2022-08-19T10:19:52;14.27;;;5.20;;
43457;SDS011;29046;54.184;18.680;2022-08-19T10:22:32;10.95;;;5.53;;
43457;SDS011;29046;54.184;18.680;2022-08-19T10:25:15;12.45;;;6.07;;
43457;SDS011;29046;54.184;18.680;2022-08-19T10:27:54;10.25;;;6.07;;
43457;SDS011;29046;54.184;18.680;2022-08-19T10:30:35;9.95;;;5.35;;
43457;SDS011;29046;54.184;18.680;2022-08-19T10:33:15;12.00;;;6.45;;
43457;SDS011;29046;54.184;18.680;2022-08-19T10:36:17;7.97;;;5.70;;
43457;SDS011;29046;54.184;18.680;2022-08-19T10:38:59;9.30;;;5.38;;
43457;SDS011;29046;54.184;18.680;2022-08-19T10:41:41;9.52;;;5.28;;
43457;SDS011;29046;54.184;18.680;2022-08-19T10:44:22;7.88;;;5.63;;
43457;SDS011;29046;54.184;18.680;2022-08-19T10:47:04;9.73;;;5.50;;
43457;SDS011;29046;54.184;18.680;2022-08-19T10:49:58;9.02;;;5.60;;
43457;SDS011;29046;54.184;18.680;2022-08-19T10:53:03;9.30;;;5.75;;
43457;SDS011;29046;54.184;18.680;2022-08-19T10:55:45;8.20;;;5.85;;
43457;SDS011;29046;54.184;18.680;2022-08-19T10:58:45;15.43;;;5.60;;
43457;SDS011;29046;54.184;18.680;2022-08-19T11:01:32;11.55;;;5.97;;
43457;SDS011;29046;54.184;18.680;2022-08-19T11:04:08;7.25;;;5.20;;
43457;SDS011;29046;54.184;18.680;2022-08-19T11:07:03;12.20;;;5.88;;
43457;SDS011;29046;54.184;18.680;2022-08-19T11:09:38;8.68;;;5.80;;
43457;SDS011;29046;54.184;18.680;2022-08-19T11:12:25;10.23;;;5.75;;
43457;SDS011;29046;54.184;18.680;2022-08-19T11:15:07;11.82;;;6.13;;
43457;SDS011;29046;54.184;18.680;2022-08-19T11:17:48;7.32;;;5.82;;
43457;SDS011;29046;54.184;18.680;2022-08-19T11:20:33;18.33;;;6.22;;
43457;SDS011;29046;54.184;18.680;2022-08-19T11:23:13;13.00;;;5.90;;
43457;SDS011;29046;54.184;18.680;2022-08-19T11:25:54;16.75;;;6.00;;
43457;SDS011;29046;54.184;18.680;2022-08-19T11:28:41;10.55;;;5.95;;
43457;SDS011;29046;54.184;18.680;2022-08-19T11:31:17;17.15;;;5.97;;
43457;SDS011;29046;54.184;18.680;2022-08-19T11:34:08;14.40;;;5.80;;
43457;SDS011;29046;54.184;18.680;2022-08-19T11:36:44;12.07;;;6.30;;
43457;SDS011;29046;54.184;18.680;2022-08-19T11:39:32;14.90;;;6.05;;
43457;SDS011;29046;54.184;18.680;2022-08-19T11:42:08;12.60;;;5.90;;
43457;SDS011;29046;54.184;18.680;2022-08-19T11:45:15;16.17;;;5.93;;
43457;SDS011;29046;54.184;18.680;2022-08-19T11:47:49;10.45;;;5.45;;
43457;SDS011;29046;54.184;18.680;2022-08-19T11:50:43;10.48;;;5.03;;
43457;SDS011;29046;54.184;18.680;2022-08-19T11:53:38;12.77;;;5.93;;
43457;SDS011;29046;54.184;18.680;2022-08-19T11:56:12;7.90;;;5.27;;
43457;SDS011;29046;54.184;18.680;2022-08-19T11:59:06;11.23;;;5.80;;
43457;SDS011;29046;54.184;18.680;2022-08-19T12:02:00;11.70;;;5.68;;
43457;SDS011;29046;54.184;18.680;2022-08-19T12:04:34;8.93;;;5.35;;
43457;SDS011;29046;54.184;18.680;2022-08-19T12:07:20;8.55;;;5.53;;
43457;SDS011;29046;54.184;18.680;2022-08-19T12:09:55;12.55;;;5.50;;
43457;SDS011;29046;54.184;18.680;2022-08-19T12:12:42;11.38;;;6.80;;
43457;SDS011;29046;54.184;18.680;2022-08-19T12:15:30;13.68;;;5.60;;
43457;SDS011;29046;54.184;18.680;2022-08-19T12:18:15;13.07;;;5.65;;
43457;SDS011;29046;54.184;18.680;2022-08-19T12:20:55;7.68;;;5.57;;
43457;SDS011;29046;54.184;18.680;2022-08-19T12:23:36;13.73;;;6.60;;
43457;SDS011;29046;54.184;18.680;2022-08-19T12:26:17;15.38;;;6.35;;
43457;SDS011;29046;54.184;18.680;2022-08-19T12:28:51;10.50;;;5.68;;
43457;SDS011;29046;54.184;18.680;2022-08-19T12:31:39;10.50;;;6.25;;
43457;SDS011;29046;54.184;18.680;2022-08-19T12:34:15;11.05;;;5.60;;
43457;SDS011;29046;54.184;18.680;2022-08-19T12:37:08;7.15;;;5.70;;
43457;SDS011;29046;54.184;18.680;2022-08-19T12:39:43;9.43;;;5.37;;
43457;SDS011;29046;54.184;18.680;2022-08-19T12:42:30;7.93;;;5.43;;
43457;SDS011;29046;54.184;18.680;2022-08-19T12:45:05;8.93;;;6.03;;
43457;SDS011;29046;54.184;18.680;2022-08-19T12:47:52;17.50;;;6.43;;
43457;SDS011;29046;54.184;18.680;2022-08-19T12:50:47;13.13;;;5.70;;
43457;SDS011;29046;54.184;18.680;2022-08-19T12:53:35;9.73;;;5.70;;
43457;SDS011;29046;54.184;18.680;2022-08-19T12:56:10;12.23;;;5.78;;
43457;SDS011;29046;54.184;18.680;2022-08-19T12:59:06;11.57;;;5.53;;
43457;SDS011;29046;54.184;18.680;2022-08-19T13:01:41;11.65;;;5.60;;
43457;SDS011;29046;54.184;18.680;2022-08-19T13:04:29;10.75;;;6.13;;
43457;SDS011;29046;54.184;18.680;2022-08-19T13:07:03;9.00;;;6.03;;
43457;SDS011;29046;54.184;18.680;2022-08-19T13:09:57;8.48;;;5.50;;
43457;SDS011;29046;54.184;18.680;2022-08-19T13:12:51;14.02;;;5.88;;
43457;SDS011;29046;54.184;18.680;2022-08-19T13:15:26;9.60;;;6.20;;
43457;SDS011;29046;54.184;18.680;2022-08-19T13:18:13;7.80;;;5.65;;
43457;SDS011;29046;54.184;18.680;2022-08-19T13:20:48;9.82;;;5.90;;
43457;SDS011;29046;54.184;18.680;2022-08-19T13:23:36;8.38;;;5.50;;
43457;SDS011;29046;54.184;18.680;2022-08-19T13:26:10;10.52;;;5.97;;
43457;SDS011;29046;54.184;18.680;2022-08-19T13:28:57;12.70;;;5.88;;
43457;SDS011;29046;54.184;18.680;2022-08-19T13:31:49;16.58;;;6.07;;
43457;SDS011;29046;54.184;18.680;2022-08-19T13:34:56;10.00;;;5.72;;
43457;SDS011;29046;54.184;18.680;2022-08-19T13:37:30;8.38;;;5.80;;
43457;SDS011;29046;54.184;18.680;2022-08-19T13:40:22;12.02;;;6.07;;
43457;SDS011;29046;54.184;18.680;2022-08-19T13:42:56;10.27;;;6.25;;
43457;SDS011;29046;54.184;18.680;2022-08-19T13:46:07;8.63;;;6.30;;
43457;SDS011;29046;54.184;18.680;2022-08-19T13:48:41;11.80;;;5.85;;
43457;SDS011;29046;54.184;18.680;2022-08-19T13:51:29;12.85;;;5.45;;
43457;SDS011;29046;54.184;18.680;2022-08-19T13:54:02;8.95;;;5.90;;
43457;SDS011;29046;54.184;18.680;2022-08-19T13:56:50;8.30;;;6.20;;
43457;SDS011;29046;54.184;18.680;2022-08-19T13:59:23;12.13;;;5.72;;
43457;SDS011;29046;54.184;18.680;2022-08-19T14:02:12;14.45;;;6.05;;
43457;SDS011;29046;54.184;18.680;2022-08-19T14:04:45;12.40;;;6.20;;
43457;SDS011;29046;54.184;18.680;2022-08-19T14:07:33;9.02;;;6.22;;
43457;SDS011;29046;54.184;18.680;2022-08-19T14:10:07;10.85;;;5.72;;
43457;SDS011;29046;54.184;18.680;2022-08-19T14:12:56;14.00;;;7.30;;
43457;SDS011;29046;54.184;18.680;2022-08-19T14:15:38;71.75;;;9.50;;
43457;SDS011;29046;54.184;18.680;2022-08-19T14:18:18;15.13;;;5.90;;
43457;SDS011;29046;54.184;18.680;2022-08-19T14:21:01;10.07;;;5.80;;
43457;SDS011;29046;54.184;18.680;2022-08-19T14:23:42;11.38;;;5.93;;
43457;SDS011;29046;54.184;18.680;2022-08-19T14:26:22;9.60;;;6.10;;
43457;SDS011;29046;54.184;18.680;2022-08-19T14:29:10;10.35;;;5.93;;
43457;SDS011;29046;54.184;18.680;2022-08-19T14:31:43;13.82;;;6.82;;
43457;SDS011;29046;54.184;18.680;2022-08-19T14:34:31;13.75;;;6.22;;
43457;SDS011;29046;54.184;18.680;2022-08-19T14:37:14;6.65;;;5.82;;
43457;SDS011;29046;54.184;18.680;2022-08-19T14:40:02;8.02;;;6.03;;
43457;SDS011;29046;54.184;18.680;2022-08-19T14:42:37;8.68;;;7.00;;
43457;SDS011;29046;54.184;18.680;2022-08-19T14:45:25;10.47;;;6.30;;
43457;SDS011;29046;54.184;18.680;2022-08-19T14:48:06;7.45;;;6.03;;
43457;SDS011;29046;54.184;18.680;2022-08-19T14:50:52;12.23;;;6.78;;
43457;SDS011;29046;54.184;18.680;2022-08-19T14:53:26;17.40;;;6.30;;
43457;SDS011;29046;54.184;18.680;2022-08-19T14:56:22;10.13;;;6.10;;
43457;SDS011;29046;54.184;18.680;2022-08-19T14:59:17;14.48;;;6.68;;
43457;SDS011;29046;54.184;18.680;2022-08-19T15:01:51;7.63;;;6.43;;
43457;SDS011;29046;54.184;18.680;2022-08-19T15:04:59;12.63;;;6.03;;
43457;SDS011;29046;54.184;18.680;2022-08-19T15:07:32;16.38;;;6.18;;
43457;SDS011;29046;54.184;18.680;2022-08-19T15:10:20;10.93;;;6.53;;
43457;SDS011;29046;54.184;18.680;2022-08-19T15:12:57;10.95;;;5.75;;
43457;SDS011;29046;54.184;18.680;2022-08-19T15:15:51;16.15;;;6.10;;
43457;SDS011;29046;54.184;18.680;2022-08-19T15:18:24;14.82;;;6.05;;
43457;SDS011;29046;54.184;18.680;2022-08-19T15:21:13;15.30;;;5.82;;
43457;SDS011;29046;54.184;18.680;2022-08-19T15:23:55;19.00;;;6.53;;
43457;SDS011;29046;54.184;18.680;2022-08-19T15:26:43;15.20;;;5.97;;
43457;SDS011;29046;54.184;18.680;2022-08-19T15:29:16;20.25;;;7.28;;
43457;SDS011;29046;54.184;18.680;2022-08-19T15:32:11;12.18;;;5.68;;
43457;SDS011;29046;54.184;18.680;2022-08-19T15:35:06;15.23;;;6.05;;
43457;SDS011;29046;54.184;18.680;2022-08-19T15:37:40;11.18;;;6.05;;
43457;SDS011;29046;54.184;18.680;2022-08-19T15:40:35;13.25;;;6.28;;
43457;SDS011;29046;54.184;18.680;2022-08-19T15:43:31;13.63;;;6.43;;
43457;SDS011;29046;54.184;18.680;2022-08-19T15:48:56;12.15;;;5.85;;
43457;SDS011;29046;54.184;18.680;2022-08-19T15:51:32;11.90;;;6.57;;
43457;SDS011;29046;54.184;18.680;2022-08-19T15:54:22;14.07;;;6.50;;
43457;SDS011;29046;54.184;18.680;2022-08-19T15:56:56;11.07;;;6.00;;
43457;SDS011;29046;54.184;18.680;2022-08-19T16:00:02;9.40;;;6.38;;
43457;SDS011;29046;54.184;18.680;2022-08-19T16:02:55;14.07;;;6.38;;
43457;SDS011;29046;54.184;18.680;2022-08-19T16:06:02;9.77;;;6.75;;
43457;SDS011;29046;54.184;18.680;2022-08-19T16:08:56;12.68;;;6.95;;
43457;SDS011;29046;54.184;18.680;2022-08-19T16:11:44;13.63;;;6.55;;
43457;SDS011;29046;54.184;18.680;2022-08-19T16:14:29;12.23;;;6.93;;
43457;SDS011;29046;54.184;18.680;2022-08-19T16:17:18;23.85;;;7.22;;